createdAt,value
2022-12-23T00:00:23.513Z,36.80
2022-12-23T00:02:51.616Z,36.80
2022-12-23T00:05:19.696Z,36.80
2022-12-23T00:07:47.606Z,36.80
2022-12-23T00:10:15.601Z,36.80
2022-12-23T00:13:02.602Z,36.80
2022-12-23T00:15:30.370Z,36.80
2022-12-23T00:17:58.254Z,36.80
2022-12-23T00:20:26.128Z,36.80
2022-12-23T00:23:06.020Z,36.90
2022-12-23T00:25:42.191Z,36.80
2022-12-23T00:28:15.705Z,36.80
2022-12-23T00:30:55.735Z,36.90
2022-12-23T00:33:26.382Z,36.90
2022-12-23T00:35:54.566Z,36.80
2022-12-23T00:38:42.656Z,36.90
2022-12-23T00:41:35.276Z,36.90
2022-12-23T00:44:04.659Z,36.90
2022-12-23T00:46:32.985Z,36.90
2022-12-23T00:49:19.446Z,36.90
2022-12-23T00:51:47.348Z,36.90
2022-12-23T00:54:15.494Z,36.90
2022-12-23T00:56:43.383Z,36.90
2022-12-23T00:59:11.407Z,37.00
2022-12-23T01:01:58.000Z,36.90
2022-12-23T01:04:44.678Z,36.90
2022-12-23T01:07:12.880Z,37.00
2022-12-23T01:09:40.855Z,37.00
2022-12-23T01:12:08.930Z,36.90
2022-12-23T01:14:37.327Z,37.00
2022-12-23T01:17:07.263Z,37.00
2022-12-23T01:19:36.092Z,37.00
2022-12-23T01:22:04.096Z,37.00
2022-12-23T01:24:32.572Z,37.00
2022-12-23T01:27:00.636Z,37.00
2022-12-23T01:29:29.067Z,37.00
2022-12-23T01:31:57.210Z,37.00
2022-12-23T01:34:28.483Z,37.00
2022-12-23T01:36:58.849Z,37.00
2022-12-23T01:39:26.577Z,37.00
2022-12-23T01:42:13.264Z,37.00
2022-12-23T01:44:52.950Z,37.10
2022-12-23T01:47:52.651Z,37.10
2022-12-23T01:50:33.005Z,37.10
2022-12-23T01:53:38.168Z,37.10
2022-12-23T01:56:16.745Z,37.10
2022-12-23T01:58:49.891Z,37.10
2022-12-23T02:01:36.789Z,37.10
2022-12-23T02:04:09.274Z,37.10
2022-12-23T02:06:59.149Z,37.10
2022-12-23T02:09:34.148Z,37.10
2022-12-23T02:12:21.647Z,37.10
2022-12-23T02:15:36.161Z,37.10
2022-12-23T02:18:32.985Z,37.10
2022-12-23T02:21:27.055Z,37.10
2022-12-23T02:24:26.102Z,37.10
2022-12-23T02:26:53.891Z,37.10
2022-12-23T02:29:30.713Z,37.10
2022-12-23T02:32:17.825Z,37.20
2022-12-23T02:35:07.364Z,37.10
2022-12-23T02:37:41.294Z,37.10
2022-12-23T02:40:14.583Z,37.10
2022-12-23T02:42:50.760Z,37.10
2022-12-23T02:45:29.050Z,37.10
2022-12-23T02:48:04.257Z,37.10
2022-12-23T02:50:35.344Z,37.10
2022-12-23T02:53:11.465Z,37.10
2022-12-23T02:55:41.783Z,37.10
2022-12-23T02:58:13.477Z,37.10
2022-12-23T03:00:43.314Z,37.20
2022-12-23T03:03:11.472Z,37.10
2022-12-23T03:05:44.070Z,37.20
2022-12-23T03:08:17.045Z,37.00
2022-12-23T03:11:07.762Z,37.10
2022-12-23T03:14:12.080Z,37.00
2022-12-23T03:17:16.433Z,37.00
2022-12-23T03:20:09.621Z,37.00
2022-12-23T03:22:55.672Z,36.90
2022-12-23T03:25:38.396Z,36.90
2022-12-23T03:28:40.853Z,36.90
2022-12-23T03:31:14.965Z,36.90
2022-12-23T03:33:51.073Z,36.90
2022-12-23T03:36:24.886Z,36.90
2022-12-23T03:38:55.117Z,36.90
2022-12-23T03:41:39.527Z,36.80
2022-12-23T03:44:13.646Z,36.80
2022-12-23T03:46:52.245Z,36.90
2022-12-23T03:49:33.895Z,36.80
2022-12-23T03:52:07.671Z,36.90
2022-12-23T03:55:05.291Z,36.80
2022-12-23T03:57:40.462Z,36.80
2022-12-23T04:00:08.985Z,36.80
2022-12-23T04:02:59.595Z,36.80
2022-12-23T04:05:35.057Z,36.70
2022-12-23T04:08:22.596Z,36.70
2022-12-23T04:10:51.242Z,36.80
2022-12-23T04:13:19.646Z,36.70
2022-12-23T04:15:48.109Z,36.70
2022-12-23T04:18:16.637Z,36.80
2022-12-23T04:20:44.537Z,36.80
2022-12-23T04:23:14.339Z,36.70
2022-12-23T04:25:42.423Z,36.70
2022-12-23T04:28:10.388Z,36.70
2022-12-23T04:30:38.364Z,36.70
2022-12-23T04:33:06.379Z,36.70
2022-12-23T04:35:34.294Z,36.60
2022-12-23T04:38:02.333Z,36.60
2022-12-23T04:40:30.508Z,36.60
2022-12-23T04:42:58.294Z,36.70
2022-12-23T04:45:26.236Z,36.60
2022-12-23T04:47:55.407Z,36.60
2022-12-23T04:50:23.387Z,36.60
2022-12-23T04:52:51.390Z,36.60
2022-12-23T04:55:19.204Z,36.60
2022-12-23T04:57:49.632Z,36.60
2022-12-23T05:00:17.950Z,36.50
2022-12-23T05:02:46.046Z,36.50
2022-12-23T05:05:14.249Z,36.70
2022-12-23T05:07:42.058Z,36.30
2022-12-23T05:10:10.858Z,36.40
2022-12-23T05:12:38.771Z,36.20
2022-12-23T05:15:07.564Z,36.10
2022-12-23T05:17:35.728Z,36.20
2022-12-23T05:20:03.732Z,36.00
2022-12-23T05:22:31.919Z,35.90
2022-12-23T05:25:00.008Z,35.80
2022-12-23T05:27:28.092Z,35.80
2022-12-23T05:29:56.187Z,35.50
2022-12-23T05:32:24.276Z,35.60
2022-12-23T05:34:52.356Z,35.50
2022-12-23T05:37:20.380Z,35.50
2022-12-23T05:39:48.728Z,35.70
2022-12-23T05:42:19.530Z,35.50
2022-12-23T05:44:47.610Z,35.50
2022-12-23T05:47:15.592Z,35.50
2022-12-23T05:49:43.635Z,35.20
2022-12-23T05:52:11.604Z,35.20
2022-12-23T05:54:39.491Z,35.10
2022-12-23T05:57:07.345Z,35.00
2022-12-23T05:59:35.686Z,35.10
2022-12-23T06:02:04.019Z,35.10
2022-12-23T06:04:32.317Z,35.10
2022-12-23T06:07:00.348Z,35.20
2022-12-23T06:09:28.486Z,35.20
2022-12-23T06:11:56.521Z,35.00
2022-12-23T06:14:28.781Z,34.90
2022-12-23T06:16:57.591Z,34.70
2022-12-23T06:19:27.377Z,34.80
2022-12-23T06:21:55.476Z,34.70
2022-12-23T06:24:23.746Z,34.70
2022-12-23T06:26:56.781Z,34.70
2022-12-23T06:29:25.654Z,34.60
2022-12-23T06:31:53.834Z,34.50
2022-12-23T06:34:22.112Z,34.50
2022-12-23T06:36:50.327Z,34.60
2022-12-23T06:39:18.564Z,34.50
2022-12-23T06:41:46.883Z,34.50
2022-12-23T06:44:15.116Z,34.60
2022-12-23T06:46:43.193Z,34.50
2022-12-23T06:49:13.629Z,34.50
2022-12-23T06:51:42.124Z,34.50
2022-12-23T06:54:14.822Z,34.30
2022-12-23T06:56:42.937Z,34.30
2022-12-23T06:59:11.049Z,34.30
2022-12-23T07:01:40.659Z,34.40
2022-12-23T07:04:10.560Z,34.20
2022-12-23T07:06:40.078Z,34.30
2022-12-23T07:09:08.149Z,34.30
2022-12-23T07:11:36.199Z,34.30
2022-12-23T07:14:04.504Z,34.20
2022-12-23T07:16:32.419Z,34.20
2022-12-23T07:19:00.567Z,34.20
2022-12-23T07:21:29.736Z,34.10
2022-12-23T07:23:59.705Z,34.30
2022-12-23T07:26:27.661Z,34.30
2022-12-23T07:28:55.907Z,34.60
2022-12-23T07:31:24.192Z,34.80
2022-12-23T07:33:53.249Z,35.00
2022-12-23T07:36:21.358Z,35.40
2022-12-23T07:38:52.481Z,35.50
2022-12-23T07:41:20.572Z,35.40
2022-12-23T07:43:48.882Z,35.60
2022-12-23T07:46:16.924Z,35.80
2022-12-23T07:48:45.113Z,35.90
2022-12-23T07:51:13.484Z,35.70
2022-12-23T07:53:41.787Z,36.00
2022-12-23T07:56:10.050Z,35.50
2022-12-23T07:58:38.100Z,35.50
2022-12-23T08:01:08.253Z,35.40
2022-12-23T08:03:37.494Z,35.20
2022-12-23T08:06:10.068Z,35.50
2022-12-23T08:08:38.607Z,35.80
2022-12-23T08:11:10.385Z,34.90
2022-12-23T08:13:41.340Z,34.40
2022-12-23T08:16:10.803Z,35.20
2022-12-23T08:18:41.998Z,35.50
2022-12-23T08:21:15.031Z,35.50
2022-12-23T08:23:43.838Z,35.50
2022-12-23T08:26:17.830Z,35.70
2022-12-23T08:28:46.351Z,35.80
2022-12-23T08:31:17.653Z,36.20
2022-12-23T08:33:49.301Z,36.90
2022-12-23T08:36:23.075Z,36.30
2022-12-23T08:38:54.066Z,36.50
2022-12-23T08:41:31.190Z,36.10
2022-12-23T08:43:59.736Z,35.40
2022-12-23T08:46:28.604Z,35.10
2022-12-23T08:48:57.192Z,35.30
2022-12-23T08:51:26.967Z,35.40
2022-12-23T08:54:00.470Z,35.60
2022-12-23T08:56:35.774Z,35.80
2022-12-23T08:59:04.439Z,35.90
2022-12-23T09:01:34.776Z,36.00
2022-12-23T09:04:05.581Z,36.00
2022-12-23T09:06:37.753Z,35.90
2022-12-23T09:09:06.120Z,35.90
2022-12-23T09:11:34.776Z,35.90
2022-12-23T09:14:03.708Z,36.00
2022-12-23T09:16:32.063Z,36.00
2022-12-23T09:19:00.212Z,36.00
2022-12-23T09:21:28.949Z,36.10
2022-12-23T09:23:57.104Z,35.90
2022-12-23T09:26:29.168Z,35.80
2022-12-23T09:28:57.810Z,35.60
2022-12-23T09:31:30.817Z,35.30
2022-12-23T09:34:02.352Z,35.10
2022-12-23T09:36:30.363Z,35.00
2022-12-23T09:38:58.930Z,34.90
2022-12-23T09:41:50.655Z,35.20
2022-12-23T09:44:52.862Z,35.40
2022-12-23T09:47:25.491Z,35.60
2022-12-23T09:50:00.536Z,35.70
2022-12-23T09:53:05.636Z,35.80
2022-12-23T09:55:51.431Z,35.80
2022-12-23T09:58:30.230Z,35.90
2022-12-23T10:01:16.960Z,36.00
2022-12-23T10:04:03.934Z,36.00
2022-12-23T10:06:33.712Z,36.10
2022-12-23T10:09:04.693Z,36.10
2022-12-23T10:11:38.335Z,36.20
2022-12-23T10:14:22.212Z,36.20
2022-12-23T10:17:00.271Z,36.30
2022-12-23T10:19:47.958Z,36.20
2022-12-23T10:22:23.459Z,36.00
2022-12-23T10:24:54.202Z,35.70
2022-12-23T10:27:32.878Z,35.60
2022-12-23T10:33:23.932Z,35.10
2022-12-23T10:36:40.635Z,35.00
2022-12-23T10:39:33.593Z,35.20
2022-12-23T10:42:21.862Z,35.40
2022-12-23T10:45:34.553Z,35.50
2022-12-23T10:48:20.800Z,35.70
2022-12-23T10:50:54.861Z,35.70
2022-12-23T10:53:46.899Z,35.80
2022-12-23T10:56:16.627Z,35.80
2022-12-23T10:58:49.030Z,35.90
2022-12-23T11:01:26.421Z,35.90
2022-12-23T11:04:08.991Z,36.00
2022-12-23T11:06:43.898Z,36.00
2022-12-23T11:09:19.556Z,35.90
2022-12-23T11:12:09.732Z,36.00
2022-12-23T11:14:50.676Z,36.00
2022-12-23T11:17:29.818Z,36.00
2022-12-23T11:20:24.164Z,36.00
2022-12-23T11:23:02.336Z,35.90
2022-12-23T11:25:43.421Z,35.70
2022-12-23T11:28:13.522Z,35.50
2022-12-23T11:30:56.354Z,35.40
2022-12-23T11:33:31.265Z,35.20
2022-12-23T11:36:01.623Z,35.10
2022-12-23T11:38:30.151Z,35.00
2022-12-23T11:40:58.707Z,35.30
2022-12-23T11:43:28.560Z,35.60
2022-12-23T11:46:25.466Z,35.70
2022-12-23T11:49:07.007Z,36.00
2022-12-23T11:51:35.222Z,36.10
2022-12-23T11:54:03.723Z,36.20
2022-12-23T11:56:39.636Z,36.20
2022-12-23T11:59:27.944Z,36.20
2022-12-23T12:01:59.978Z,36.30
2022-12-23T12:04:32.271Z,36.30
2022-12-23T12:07:01.634Z,36.30
2022-12-23T12:09:32.498Z,36.30
2022-12-23T12:12:12.801Z,36.20
2022-12-23T12:14:45.417Z,36.40
2022-12-23T12:17:23.111Z,36.60
2022-12-23T12:20:11.826Z,36.60
2022-12-23T12:22:55.364Z,36.80
2022-12-23T12:25:39.587Z,37.00
2022-12-23T12:28:25.118Z,36.60
2022-12-23T12:31:03.636Z,36.70
2022-12-23T12:33:46.352Z,36.30
2022-12-23T12:36:18.984Z,36.10
2022-12-23T12:38:50.824Z,36.20
2022-12-23T12:41:33.391Z,36.10
2022-12-23T12:44:26.756Z,36.30
2022-12-23T12:47:15.928Z,36.50
2022-12-23T12:50:03.583Z,36.60
2022-12-23T12:52:39.416Z,36.70
2022-12-23T12:55:26.365Z,36.80
2022-12-23T12:57:54.961Z,36.80
2022-12-23T13:00:24.541Z,36.90
2022-12-23T13:03:11.178Z,36.90
2022-12-23T13:06:00.745Z,36.90
2022-12-23T13:08:38.176Z,37.00
2022-12-23T13:11:45.546Z,37.00
2022-12-23T13:15:00.113Z,36.90
2022-12-23T13:18:04.153Z,37.00
2022-12-23T13:20:39.662Z,36.60
2022-12-23T13:23:42.776Z,36.40
2022-12-23T13:26:28.969Z,36.20
2022-12-23T13:29:15.468Z,36.10
2022-12-23T13:32:08.495Z,36.00
2022-12-23T13:34:54.624Z,36.10
2022-12-23T13:37:28.194Z,36.30
2022-12-23T13:40:07.699Z,36.50
2022-12-23T13:42:42.898Z,36.60
2022-12-23T13:45:17.615Z,36.70
2022-12-23T13:48:10.949Z,36.70
2022-12-23T13:50:52.989Z,36.80
2022-12-23T13:53:48.006Z,36.80
2022-12-23T13:56:43.251Z,36.90
2022-12-23T13:59:13.018Z,36.80
2022-12-23T14:01:41.214Z,36.90
2022-12-23T14:04:58.002Z,36.90
2022-12-23T14:07:28.435Z,37.00
2022-12-23T14:09:59.258Z,37.00
2022-12-23T14:12:35.786Z,37.00
2022-12-23T14:15:35.555Z,37.00
2022-12-23T14:18:28.541Z,37.10
2022-12-23T14:21:34.166Z,37.10
2022-12-23T14:24:39.659Z,37.10
2022-12-23T14:27:45.179Z,37.10
2022-12-23T14:30:35.093Z,37.20
2022-12-23T14:33:29.258Z,37.20
2022-12-23T14:36:35.868Z,37.00
2022-12-23T14:39:12.481Z,36.80
2022-12-23T14:41:53.150Z,36.70
2022-12-23T14:44:43.831Z,36.50
2022-12-23T14:47:33.002Z,36.50
2022-12-23T14:50:39.997Z,36.30
2022-12-23T14:53:31.924Z,36.20
2022-12-23T14:56:26.930Z,36.40
2022-12-23T14:59:39.312Z,36.40
2022-12-23T15:02:13.179Z,36.70
2022-12-23T15:04:46.779Z,36.90
2022-12-23T15:07:38.935Z,36.90
2022-12-23T15:10:18.715Z,37.00
2022-12-23T15:12:55.273Z,37.00
2022-12-23T15:15:29.428Z,37.00
2022-12-23T15:18:15.199Z,37.10
2022-12-23T15:20:43.113Z,37.10
2022-12-23T15:23:16.157Z,37.10
2022-12-23T15:25:48.260Z,37.00
2022-12-23T15:28:23.129Z,36.70
2022-12-23T15:30:58.029Z,36.60
2022-12-23T15:36:44.933Z,36.30
2022-12-23T15:39:32.630Z,36.40
2022-12-23T15:42:02.078Z,36.40
2022-12-23T15:44:40.587Z,36.50
2022-12-23T15:47:39.589Z,36.60
2022-12-23T15:50:14.829Z,36.80
2022-12-23T15:52:45.722Z,36.90
2022-12-23T15:55:15.675Z,36.90
2022-12-23T15:57:49.957Z,37.00
2022-12-23T16:00:40.523Z,37.00
2022-12-23T16:03:28.207Z,37.10
2022-12-23T16:06:14.971Z,37.10
2022-12-23T16:08:44.203Z,37.10
2022-12-23T16:11:19.008Z,37.20
2022-12-23T16:14:21.310Z,37.20
2022-12-23T16:16:52.483Z,37.30
2022-12-23T16:19:39.110Z,37.30
2022-12-23T16:22:24.774Z,37.30
2022-12-23T16:25:00.508Z,37.30
2022-12-23T16:27:48.606Z,37.30
2022-12-23T16:30:18.177Z,37.40
2022-12-23T16:32:57.745Z,37.40
2022-12-23T16:35:43.991Z,37.30
2022-12-23T16:38:27.317Z,37.40
2022-12-23T16:40:57.298Z,37.40
2022-12-23T16:43:25.940Z,37.40
2022-12-23T16:45:58.262Z,37.50
2022-12-23T16:48:36.800Z,37.40
2022-12-23T16:51:12.922Z,37.50
2022-12-23T16:53:41.129Z,37.50
2022-12-23T16:56:16.814Z,37.50
2022-12-23T16:58:45.410Z,37.50
2022-12-23T17:01:27.873Z,37.60
2022-12-23T17:03:58.941Z,37.50
2022-12-23T17:06:27.667Z,37.50
2022-12-23T17:08:57.141Z,37.60
2022-12-23T17:12:04.115Z,37.70
2022-12-23T17:14:32.319Z,37.70
2022-12-23T17:17:00.647Z,37.70
2022-12-23T17:19:29.674Z,37.70
2022-12-23T17:22:03.304Z,37.80
2022-12-23T17:24:31.772Z,37.80
2022-12-23T17:27:00.016Z,37.90
2022-12-23T17:29:28.473Z,37.80
2022-12-23T17:31:57.926Z,37.90
2022-12-23T17:34:26.094Z,37.90
2022-12-23T17:36:54.115Z,37.90
2022-12-23T17:39:22.711Z,38.00
2022-12-23T17:41:50.915Z,38.00
2022-12-23T17:44:19.921Z,38.00
2022-12-23T17:46:48.008Z,38.10
2022-12-23T17:49:16.147Z,38.10
2022-12-23T17:51:44.459Z,38.10
2022-12-23T17:54:24.410Z,38.10
2022-12-23T17:56:53.411Z,38.10
2022-12-23T17:59:22.394Z,38.10
2022-12-23T18:01:50.785Z,38.10
2022-12-23T18:04:18.924Z,38.10
2022-12-23T18:06:47.075Z,38.10
2022-12-23T18:09:15.489Z,38.20
2022-12-23T18:11:45.695Z,38.20
2022-12-23T18:14:29.824Z,38.20
2022-12-23T18:16:59.354Z,38.20
2022-12-23T18:19:27.441Z,38.20
2022-12-23T18:21:55.446Z,38.20
2022-12-23T18:24:23.445Z,38.30
2022-12-23T18:26:51.527Z,38.20
2022-12-23T18:29:19.868Z,38.20
2022-12-23T18:31:52.103Z,38.20
2022-12-23T18:34:21.259Z,38.30
2022-12-23T18:36:52.243Z,38.30
2022-12-23T18:39:21.397Z,38.30
2022-12-23T18:41:49.333Z,38.30
2022-12-23T18:44:21.556Z,38.30
2022-12-23T18:46:50.540Z,38.30
2022-12-23T18:49:18.864Z,38.30
2022-12-23T18:51:47.378Z,38.40
2022-12-23T18:54:16.833Z,38.40
2022-12-23T18:56:45.616Z,38.40
2022-12-23T18:59:22.829Z,38.40
2022-12-23T19:01:56.670Z,38.40
2022-12-23T19:04:25.076Z,38.40
2022-12-23T19:06:54.356Z,38.40
2022-12-23T19:09:24.187Z,38.40
2022-12-23T19:11:53.119Z,38.40
2022-12-23T19:14:21.356Z,38.50
2022-12-23T19:16:52.010Z,38.50
2022-12-23T19:19:21.784Z,38.50
2022-12-23T19:21:49.970Z,38.50
2022-12-23T19:24:18.682Z,38.50
2022-12-23T19:26:46.722Z,38.50
2022-12-23T19:29:14.866Z,38.60
2022-12-23T19:31:42.897Z,38.50
2022-12-23T19:34:15.063Z,38.60
2022-12-23T19:36:44.093Z,38.50
2022-12-23T19:39:16.756Z,38.50
2022-12-23T19:41:45.775Z,38.60
2022-12-23T19:44:16.557Z,38.60
2022-12-23T19:46:44.802Z,38.60
2022-12-23T19:49:19.505Z,38.60
2022-12-23T19:51:48.866Z,38.60
2022-12-23T19:54:18.210Z,38.60
2022-12-23T19:56:46.523Z,38.60
2022-12-23T19:59:14.683Z,38.60
2022-12-23T20:01:43.156Z,38.70
2022-12-23T20:04:11.695Z,38.70
2022-12-23T20:06:41.102Z,38.70
2022-12-23T20:09:13.219Z,38.70
2022-12-23T20:11:44.753Z,38.70
2022-12-23T20:14:15.878Z,38.70
2022-12-23T20:16:44.170Z,38.80
2022-12-23T20:19:12.246Z,38.70
2022-12-23T20:21:40.537Z,38.70
2022-12-23T20:24:09.600Z,38.80
2022-12-23T20:26:37.807Z,38.70
2022-12-23T20:29:05.869Z,38.80
2022-12-23T20:31:37.779Z,38.80
2022-12-23T20:34:08.195Z,38.80
2022-12-23T20:36:36.939Z,38.80
2022-12-23T20:39:06.074Z,38.80
2022-12-23T20:41:34.347Z,38.80
2022-12-23T20:44:33.282Z,38.80
2022-12-23T20:46:50.547Z,38.90
2022-12-23T20:49:18.427Z,38.80
2022-12-23T20:51:46.457Z,38.80
2022-12-23T20:54:14.528Z,38.80
2022-12-23T20:56:42.553Z,38.90
2022-12-23T20:59:10.661Z,38.90
2022-12-23T21:01:40.439Z,38.90
2022-12-23T21:04:11.899Z,38.90
2022-12-23T21:06:40.397Z,38.90
2022-12-23T21:09:11.129Z,38.90
2022-12-23T21:11:43.164Z,39.00
2022-12-23T21:14:12.333Z,39.00
2022-12-23T21:16:40.784Z,38.90
2022-12-23T21:19:18.623Z,39.00
2022-12-23T21:21:47.807Z,38.90
2022-12-23T21:24:18.964Z,39.00
2022-12-23T21:26:55.408Z,39.00
2022-12-23T21:29:24.984Z,39.00
2022-12-23T21:31:53.103Z,39.00
2022-12-23T21:34:21.315Z,39.00
2022-12-23T21:36:49.375Z,39.00
2022-12-23T21:39:17.447Z,39.00
2022-12-23T21:41:46.094Z,39.00
2022-12-23T21:44:15.073Z,39.00
2022-12-23T21:46:43.331Z,39.10
2022-12-23T21:49:11.730Z,39.10
2022-12-23T21:51:41.567Z,39.10
2022-12-23T21:54:11.518Z,39.10
2022-12-23T21:56:40.969Z,39.10
2022-12-23T21:59:13.252Z,39.10
2022-12-23T22:01:42.537Z,39.10
2022-12-23T22:04:10.935Z,39.10
2022-12-23T22:06:43.838Z,39.10
2022-12-23T22:09:16.159Z,39.10
2022-12-23T22:11:44.916Z,39.10
2022-12-23T22:14:16.082Z,39.10
2022-12-23T22:16:44.168Z,39.10
2022-12-23T22:19:12.878Z,39.20
2022-12-23T22:21:42.805Z,39.20
2022-12-23T22:24:11.409Z,39.20
2022-12-23T22:26:40.018Z,39.20
2022-12-23T22:29:08.247Z,39.20
2022-12-23T22:31:48.940Z,39.20
2022-12-23T22:34:22.123Z,39.20
2022-12-23T22:36:50.878Z,39.20
2022-12-23T22:39:21.815Z,39.20
2022-12-23T22:41:51.470Z,39.20
2022-12-23T22:44:20.261Z,39.20
2022-12-23T22:46:48.783Z,39.30
2022-12-23T22:49:17.616Z,39.30
2022-12-23T22:51:45.883Z,39.30
2022-12-23T22:54:14.360Z,39.30
2022-12-23T22:56:42.416Z,39.30
2022-12-23T22:59:19.812Z,39.30
2022-12-23T23:01:48.565Z,39.30
2022-12-23T23:04:16.795Z,39.30
2022-12-23T23:06:44.747Z,39.30
2022-12-23T23:09:15.979Z,39.30
2022-12-23T23:11:44.690Z,39.30
2022-12-23T23:14:13.284Z,39.30
2022-12-23T23:16:41.343Z,39.30
2022-12-23T23:19:11.548Z,39.30
2022-12-23T23:21:39.474Z,39.30
2022-12-23T23:24:07.863Z,39.40
2022-12-23T23:26:35.789Z,39.40
2022-12-23T23:29:03.874Z,39.40
2022-12-23T23:31:47.209Z,39.40
2022-12-23T23:34:15.516Z,39.40
2022-12-23T23:36:43.556Z,39.40
2022-12-23T23:39:12.513Z,39.40
2022-12-23T23:41:41.212Z,39.40
2022-12-23T23:44:09.879Z,39.40
2022-12-23T23:46:37.960Z,39.40
2022-12-23T23:49:06.117Z,39.40
2022-12-23T23:51:34.286Z,39.50
2022-12-23T23:54:02.186Z,39.50
2022-12-23T23:56:37.509Z,39.50
2022-12-23T23:59:05.906Z,39.50
